createdAt,value
2019-05-16T00:02:34.712Z,100839.61
2019-05-16T00:05:02.218Z,100838.30
2019-05-16T00:07:29.475Z,100828.86
2019-05-16T00:09:58.868Z,100829.87
2019-05-16T00:12:25.930Z,100830.66
2019-05-16T00:14:53.096Z,100824.59
2019-05-16T00:17:20.454Z,100818.14
2019-05-16T00:19:48.403Z,100817.45
2019-05-16T00:22:18.040Z,100819.95
2019-05-16T00:24:45.077Z,100818.29
2019-05-16T00:27:14.495Z,100813.98
2019-05-16T00:29:41.635Z,100813.23
2019-05-16T00:32:13.621Z,100810.20
2019-05-16T00:34:49.419Z,100801.16
2019-05-16T00:37:18.143Z,100802.00
2019-05-16T00:39:45.553Z,100797.53
2019-05-16T00:42:12.918Z,100799.94
2019-05-16T00:44:40.082Z,100795.78
2019-05-16T00:47:08.686Z,100792.30
2019-05-16T00:49:38.425Z,100793.06
2019-05-16T00:52:07.761Z,100785.02
2019-05-16T00:54:35.128Z,100788.67
2019-05-16T00:57:04.774Z,100779.84
2019-05-16T00:59:34.171Z,100778.80
2019-05-16T01:02:01.580Z,100783.70
2019-05-16T01:04:28.922Z,100777.94
2019-05-16T01:06:58.518Z,100779.37
2019-05-16T01:09:25.278Z,100780.23
2019-05-16T01:11:53.037Z,100772.70
2019-05-16T01:14:20.668Z,100773.02
2019-05-16T01:16:48.832Z,100769.08
2019-05-16T01:19:18.546Z,100767.99
2019-05-16T01:21:45.504Z,100767.69
2019-05-16T01:24:12.895Z,100765.18
2019-05-16T01:26:40.224Z,100765.10
2019-05-16T01:29:08.235Z,100763.22
2019-05-16T01:31:37.935Z,100751.69
2019-05-16T01:34:07.660Z,100761.86
2019-05-16T01:36:39.956Z,100760.72
2019-05-16T01:39:05.102Z,100758.38
2019-05-16T01:41:32.362Z,100756.63
2019-05-16T01:43:59.696Z,100764.50
2019-05-16T01:46:28.440Z,100759.50
2019-05-16T01:48:57.663Z,100751.31
2019-05-16T01:51:25.386Z,100754.48
2019-05-16T01:53:52.526Z,100748.41
2019-05-16T01:56:19.897Z,100742.59
2019-05-16T01:58:48.996Z,100744.25
2019-05-16T02:01:18.733Z,100734.75
2019-05-16T02:03:48.130Z,100738.08
2019-05-16T02:06:18.182Z,100738.39
2019-05-16T02:08:45.175Z,100741.59
2019-05-16T02:11:12.336Z,100736.89
2019-05-16T02:13:39.514Z,100737.27
2019-05-16T02:16:08.322Z,100734.53
2019-05-16T02:18:38.041Z,100733.00
2019-05-16T02:21:05.144Z,100734.37
2019-05-16T02:23:32.405Z,100729.83
2019-05-16T02:25:59.577Z,100724.50
2019-05-16T02:28:30.999Z,100728.07
2019-05-16T02:30:56.237Z,100719.57
2019-05-16T02:33:23.516Z,100717.77
2019-05-16T02:35:55.832Z,100718.53
2019-05-16T02:38:21.576Z,100719.50
2019-05-16T02:40:51.279Z,100724.14
2019-05-16T02:43:21.894Z,100725.27
2019-05-16T02:45:47.875Z,100720.51
2019-05-16T02:48:15.032Z,100721.86
2019-05-16T02:50:42.276Z,100720.73
2019-05-16T02:53:12.597Z,100712.14
2019-05-16T02:55:51.346Z,100710.08
2019-05-16T02:58:17.461Z,100712.45
2019-05-16T03:00:44.792Z,100711.55
2019-05-16T03:03:12.328Z,100705.98
2019-05-16T03:05:42.098Z,100701.75
2019-05-16T03:08:11.973Z,100698.26
2019-05-16T03:10:41.269Z,100698.13
2019-05-16T03:13:11.145Z,100689.30
2019-05-16T03:15:40.893Z,100696.12
2019-05-16T03:18:11.835Z,100684.82
2019-05-16T03:20:40.857Z,100683.16
2019-05-16T03:23:11.133Z,100681.94
2019-05-16T03:25:37.551Z,100675.88
2019-05-16T03:28:04.831Z,100672.02
2019-05-16T03:30:35.219Z,100670.88
2019-05-16T03:33:04.865Z,100671.48
2019-05-16T03:35:33.870Z,100676.55
2019-05-16T03:38:04.119Z,100669.81
2019-05-16T03:40:31.538Z,100667.16
2019-05-16T03:43:01.500Z,100668.00
2019-05-16T03:45:31.492Z,100670.88
2019-05-16T03:47:57.226Z,100663.73
2019-05-16T03:50:24.586Z,100665.09
2019-05-16T03:52:51.756Z,100665.02
2019-05-16T03:55:21.435Z,100658.95
2019-05-16T03:57:51.374Z,100661.78
2019-05-16T04:00:24.915Z,100658.49
2019-05-16T04:02:52.766Z,100653.79
2019-05-16T04:05:21.129Z,100659.34
2019-05-16T04:07:51.370Z,100663.44
2019-05-16T04:10:21.353Z,100653.58
2019-05-16T04:12:47.178Z,100654.48
2019-05-16T04:15:14.967Z,100651.60
2019-05-16T04:17:42.246Z,100648.50
2019-05-16T04:20:11.725Z,100651.42
2019-05-16T04:22:40.922Z,100653.05
2019-05-16T04:25:10.886Z,100646.74
2019-05-16T04:27:37.338Z,100649.25
2019-05-16T04:30:05.220Z,100644.31
2019-05-16T04:32:32.379Z,100647.27
2019-05-16T04:35:02.690Z,100645.07
2019-05-16T04:37:31.361Z,100639.59
2019-05-16T04:40:00.892Z,100643.70
2019-05-16T04:42:26.852Z,100645.58
2019-05-16T04:44:54.112Z,100642.84
2019-05-16T04:47:21.402Z,100652.27
2019-05-16T04:49:51.659Z,100652.70
2019-05-16T04:52:17.806Z,100651.94
2019-05-16T04:54:44.956Z,100655.11
2019-05-16T04:57:12.220Z,100647.13
2019-05-16T04:59:41.772Z,100646.00
2019-05-16T05:02:11.926Z,100641.27
2019-05-16T05:04:41.100Z,100645.84
2019-05-16T05:07:06.991Z,100643.81
2019-05-16T05:09:34.233Z,100641.50
2019-05-16T05:12:04.657Z,100636.77
2019-05-16T05:14:30.904Z,100635.39
2019-05-16T05:17:00.936Z,100641.59
2019-05-16T05:19:27.304Z,100634.55
2019-05-16T05:21:54.791Z,100640.50
2019-05-16T05:24:22.466Z,100637.20
2019-05-16T05:26:50.348Z,100640.83
2019-05-16T05:29:19.976Z,100631.30
2019-05-16T05:31:54.821Z,100637.62
2019-05-16T05:34:20.710Z,100634.59
2019-05-16T05:36:50.973Z,100632.16
2019-05-16T05:39:17.231Z,100638.30
2019-05-16T05:41:44.411Z,100636.63
2019-05-16T05:44:11.810Z,100637.64
2019-05-16T05:46:40.072Z,100637.02
2019-05-16T05:49:07.432Z,100638.59
2019-05-16T05:51:34.666Z,100630.25
2019-05-16T05:54:02.541Z,100635.55
2019-05-16T05:56:30.463Z,100631.98
2019-05-16T05:58:59.009Z,100634.75
2019-05-16T06:01:27.078Z,100631.55
2019-05-16T06:03:54.337Z,100639.71
2019-05-16T06:06:21.606Z,100630.59
2019-05-16T06:08:50.227Z,100633.74
2019-05-16T06:11:20.295Z,100628.79
2019-05-16T06:13:47.018Z,100625.83
2019-05-16T06:16:14.531Z,100631.44
2019-05-16T06:18:41.816Z,100620.83
2019-05-16T06:21:11.526Z,100621.08
2019-05-16T06:23:40.271Z,100617.77
2019-05-16T06:26:07.438Z,100618.80
2019-05-16T06:28:34.858Z,100613.03
2019-05-16T06:31:02.644Z,100612.77
2019-05-16T06:33:30.622Z,100609.59
2019-05-16T06:36:00.115Z,100612.31
2019-05-16T06:38:29.681Z,100609.21
2019-05-16T06:40:56.182Z,100606.89
2019-05-16T06:43:23.358Z,100615.20
2019-05-16T06:45:51.402Z,100612.27
2019-05-16T06:48:21.158Z,100606.75
2019-05-16T06:50:51.326Z,100597.11
2019-05-16T06:53:17.611Z,100601.37
2019-05-16T06:55:44.779Z,100600.39
2019-05-16T06:58:12.039Z,100588.64
2019-05-16T07:00:40.613Z,100594.48
2019-05-16T07:03:10.238Z,100588.42
2019-05-16T07:05:37.243Z,100584.58
2019-05-16T07:08:04.701Z,100582.98
2019-05-16T07:10:32.735Z,100577.91
2019-05-16T07:13:00.816Z,100569.48
2019-05-16T07:15:29.787Z,100572.39
2019-05-16T07:17:57.261Z,100572.13
2019-05-16T07:20:25.256Z,100573.28
2019-05-16T07:22:52.594Z,100567.25
2019-05-16T07:25:20.852Z,100564.27
2019-05-16T07:27:51.010Z,100561.78
2019-05-16T07:30:19.955Z,100556.38
2019-05-16T07:32:49.794Z,100546.48
2019-05-16T07:35:17.145Z,100548.97
2019-05-16T07:37:44.396Z,100544.28
2019-05-16T07:40:20.051Z,100538.47
2019-05-16T07:42:42.814Z,100536.28
2019-05-16T07:45:11.465Z,100539.88
2019-05-16T07:47:40.193Z,100533.81
2019-05-16T07:50:10.424Z,100535.44
2019-05-16T07:52:39.964Z,100544.55
2019-05-16T07:55:10.804Z,100542.37
2019-05-16T07:57:39.819Z,100539.62
2019-05-16T08:00:09.621Z,100542.86
2019-05-16T08:02:40.098Z,100540.67
2019-05-16T08:05:10.257Z,100527.71
2019-05-16T08:07:40.566Z,100537.58
2019-05-16T08:10:10.604Z,100533.91
2019-05-16T08:12:40.666Z,100530.32
2019-05-16T08:15:10.166Z,100528.37
2019-05-16T08:17:37.606Z,100523.53
2019-05-16T08:20:05.491Z,100523.33
2019-05-16T08:22:32.745Z,100520.80
2019-05-16T08:25:00.402Z,100514.67
2019-05-16T08:27:30.458Z,100509.42
2019-05-16T08:29:56.835Z,100503.99
2019-05-16T08:32:24.199Z,100503.49
2019-05-16T08:34:51.674Z,100502.97
2019-05-16T08:37:33.979Z,100496.80
2019-05-16T08:39:50.785Z,100485.70
2019-05-16T08:42:20.592Z,100486.81
2019-05-16T08:44:46.420Z,100490.14
2019-05-16T08:47:13.768Z,100481.37
2019-05-16T08:49:42.215Z,100488.69
2019-05-16T08:52:11.608Z,100488.69
2019-05-16T08:54:42.958Z,100476.70
2019-05-16T08:59:40.782Z,100477.37
2019-05-16T09:02:06.935Z,100476.72
2019-05-16T09:04:34.563Z,100470.19
2019-05-16T09:07:02.205Z,100460.70
2019-05-16T09:09:42.669Z,100464.16
2019-05-16T09:10:30.767Z,100484.68
2019-05-16T09:11:58.879Z,100463.53
2019-05-16T09:14:27.586Z,100439.66
2019-05-16T09:16:57.974Z,100446.02
2019-05-16T09:19:27.378Z,100443.61
2019-05-16T09:21:54.007Z,100438.09
2019-05-16T09:24:21.479Z,100438.66
2019-05-16T09:26:48.759Z,100440.72
2019-05-16T09:29:16.856Z,100442.06
2019-05-16T09:32:04.505Z,100448.34
2019-05-16T09:34:13.710Z,100443.60
2019-05-16T09:36:40.994Z,100439.95
2019-05-16T09:39:08.703Z,100441.42
2019-05-16T09:41:47.752Z,100430.16
2019-05-16T09:44:08.440Z,100435.81
2019-05-16T09:46:34.537Z,100434.91
2019-05-16T09:49:16.749Z,100427.98
2019-05-16T09:51:31.329Z,100423.86
2019-05-16T09:53:58.779Z,100422.69
2019-05-16T09:56:26.972Z,100415.14
2019-05-16T09:58:57.222Z,100415.75
2019-05-16T10:01:23.730Z,100408.96
2019-05-16T10:03:51.194Z,100415.04
2019-05-16T10:06:19.344Z,100413.08
2019-05-16T10:08:46.840Z,100408.64
2019-05-16T10:11:14.210Z,100410.65
2019-05-16T10:13:41.505Z,100404.16
2019-05-16T10:16:08.972Z,100395.68
2019-05-16T10:18:36.994Z,100390.33
2019-05-16T10:21:04.653Z,100392.33
2019-05-16T10:23:32.008Z,100377.05
2019-05-16T10:25:59.473Z,100372.59
2019-05-16T10:28:27.579Z,100367.03
2019-05-16T10:30:56.815Z,100360.58
2019-05-16T10:33:27.241Z,100364.12
2019-05-16T10:35:53.464Z,100367.41
2019-05-16T10:38:20.830Z,100360.56
2019-05-16T10:40:48.181Z,100358.42
2019-05-16T10:43:17.317Z,100354.44
2019-05-16T10:45:46.393Z,100343.97
2019-05-16T10:48:13.970Z,100343.25
2019-05-16T10:50:42.120Z,100340.77
2019-05-16T10:53:28.391Z,100335.95
2019-05-16T10:55:38.762Z,100341.42
2019-05-16T10:58:07.366Z,100338.59
2019-05-16T11:01:06.614Z,100327.79
2019-05-16T11:03:06.497Z,100326.27
2019-05-16T11:05:38.921Z,100325.14
2019-05-16T11:08:03.682Z,100320.05
2019-05-16T11:10:31.006Z,100323.53
2019-05-16T11:12:59.723Z,100320.17
2019-05-16T11:15:27.935Z,100318.00
2019-05-16T11:17:57.379Z,100305.58
2019-05-16T11:20:26.809Z,100311.80
2019-05-16T11:22:53.691Z,100316.91
2019-05-16T11:25:28.811Z,100304.23
2019-05-16T11:27:50.344Z,100304.28
2019-05-16T11:30:18.503Z,100301.91
2019-05-16T11:32:47.009Z,100300.00
2019-05-16T11:35:17.043Z,100291.39
2019-05-16T11:37:46.922Z,100286.70
2019-05-16T11:40:13.483Z,100282.29
2019-05-16T11:42:40.845Z,100280.36
2019-05-16T11:45:10.179Z,100283.39
2019-05-16T11:47:38.090Z,100273.91
2019-05-16T11:50:07.535Z,100269.67
2019-05-16T11:52:35.316Z,100279.66
2019-05-16T11:55:03.392Z,100272.46
2019-05-16T11:57:30.639Z,100273.00
2019-05-16T11:59:57.907Z,100272.49
2019-05-16T12:02:27.891Z,100274.27
2019-05-16T12:04:54.436Z,100267.35
2019-05-16T12:07:21.970Z,100268.55
2019-05-16T12:09:55.086Z,100268.16
2019-05-16T12:12:20.816Z,100276.78
2019-05-16T12:14:47.759Z,100262.34
2019-05-16T12:17:16.624Z,100263.06
2019-05-16T12:19:44.874Z,100256.50
2019-05-16T12:22:13.170Z,100249.34
2019-05-16T12:24:41.439Z,100252.69
2019-05-16T12:27:09.351Z,100252.11
2019-05-16T12:29:37.394Z,100245.55
2019-05-16T12:32:07.666Z,100250.12
2019-05-16T12:34:34.171Z,100239.14
2019-05-16T12:37:01.553Z,100234.31
2019-05-16T12:39:28.953Z,100230.89
2019-05-16T12:41:59.188Z,100225.34
2019-05-16T12:44:26.874Z,100234.14
2019-05-16T12:46:56.766Z,100227.38
2019-05-16T12:49:23.711Z,100216.89
2019-05-16T12:51:51.077Z,100220.07
2019-05-16T12:54:20.795Z,100218.09
2019-05-16T12:56:48.498Z,100220.13
2019-05-16T12:59:20.361Z,100214.88
2019-05-16T13:01:48.157Z,100220.59
2019-05-16T13:04:18.552Z,100217.31
2019-05-16T13:06:44.066Z,100212.98
2019-05-16T13:09:11.441Z,100218.84
2019-05-16T13:11:38.825Z,100209.78
2019-05-16T13:14:10.781Z,100219.29
2019-05-16T13:16:37.552Z,100214.28
2019-05-16T13:19:06.979Z,100219.67
2019-05-16T13:21:34.287Z,100210.39
2019-05-16T13:24:01.755Z,100210.56
2019-05-16T13:26:29.125Z,100204.64
2019-05-16T13:28:57.831Z,100201.70
2019-05-16T13:31:31.469Z,100198.09
2019-05-16T13:33:58.714Z,100193.02
2019-05-16T13:36:27.180Z,100193.46
2019-05-16T13:38:57.365Z,100185.30
2019-05-16T13:41:26.857Z,100180.64
2019-05-16T13:43:53.718Z,100173.23
2019-05-16T13:46:21.110Z,100176.89
2019-05-16T13:48:48.654Z,100172.08
2019-05-16T13:51:18.973Z,100169.59
2019-05-16T13:53:47.169Z,100173.05
2019-05-16T13:56:17.365Z,100175.52
2019-05-16T13:58:46.782Z,100178.94
2019-05-16T14:01:13.706Z,100180.88
2019-05-16T14:03:41.100Z,100188.48
2019-05-16T14:06:08.355Z,100171.41
2019-05-16T14:08:37.375Z,100180.90
2019-05-16T14:11:08.968Z,100184.00
2019-05-16T14:13:34.194Z,100187.83
2019-05-16T14:16:01.555Z,100180.59
2019-05-16T14:18:28.840Z,100175.47
2019-05-16T14:20:57.283Z,100179.62
2019-05-16T14:23:28.095Z,100180.88
2019-05-16T14:25:54.050Z,100188.55
2019-05-16T14:28:21.243Z,100189.31
2019-05-16T14:30:48.652Z,100191.28
2019-05-16T14:33:17.170Z,100190.27
2019-05-16T14:35:47.024Z,100197.41
2019-05-16T14:38:17.337Z,100186.96
2019-05-16T14:40:49.311Z,100172.72
2019-05-16T14:43:13.227Z,100177.27
2019-05-16T14:45:40.593Z,100172.14
2019-05-16T14:48:08.081Z,100173.91
2019-05-16T14:50:37.639Z,100174.55
2019-05-16T14:53:07.115Z,100170.81
2019-05-16T14:55:33.754Z,100168.88
2019-05-16T14:58:01.164Z,100184.30
2019-05-16T15:00:28.519Z,100182.55
2019-05-16T15:02:56.622Z,100178.53
2019-05-16T15:05:24.465Z,100180.48
2019-05-16T15:07:51.713Z,100173.03
2019-05-16T15:10:19.709Z,100174.08
2019-05-16T15:12:47.169Z,100178.58
2019-05-16T15:15:24.105Z,100177.13
2019-05-16T15:17:50.717Z,100186.48
2019-05-16T15:20:18.604Z,100184.78
2019-05-16T15:22:47.240Z,100185.66
2019-05-16T15:25:17.425Z,100179.49
2019-05-16T15:27:44.983Z,100179.34
2019-05-16T15:30:12.868Z,100182.84
2019-05-16T15:32:40.315Z,100179.00
2019-05-16T15:35:08.604Z,100184.08
2019-05-16T15:37:37.209Z,100174.37
2019-05-16T15:40:07.798Z,100166.67
2019-05-16T15:42:37.294Z,100169.16
2019-05-16T15:45:07.201Z,100159.81
2019-05-16T15:47:37.431Z,100160.37
2019-05-16T15:50:07.994Z,100155.87
2019-05-16T15:52:38.258Z,100158.39
2019-05-16T15:55:10.154Z,100164.73
2019-05-16T15:57:37.750Z,100168.63
2019-05-16T16:00:10.622Z,100154.60
2019-05-16T16:02:37.523Z,100155.97
2019-05-16T16:05:07.206Z,100157.05
2019-05-16T16:07:37.752Z,100164.77
2019-05-16T16:10:07.035Z,100158.45
2019-05-16T16:12:37.249Z,100158.75
2019-05-16T16:15:07.655Z,100146.06
2019-05-16T16:17:37.695Z,100146.61
2019-05-16T16:20:09.898Z,100148.81
2019-05-16T16:22:34.258Z,100142.49
2019-05-16T16:25:01.960Z,100143.02
2019-05-16T16:27:31.457Z,100145.47
2019-05-16T16:30:01.896Z,100143.04
2019-05-16T16:32:29.406Z,100140.55
2019-05-16T16:34:57.526Z,100131.20
2019-05-16T16:37:27.336Z,100140.28
2019-05-16T16:39:54.370Z,100141.41
2019-05-16T16:42:21.892Z,100145.23
2019-05-16T16:44:49.292Z,100143.77
2019-05-16T16:47:17.613Z,100140.75
2019-05-16T16:49:45.519Z,100139.67
2019-05-16T16:52:13.289Z,100150.45
2019-05-16T16:54:40.466Z,100141.38
2019-05-16T16:57:08.367Z,100146.27
2019-05-16T16:59:37.146Z,100147.05
2019-05-16T17:02:04.711Z,100145.97
2019-05-16T17:04:32.059Z,100146.02
2019-05-16T17:06:59.439Z,100152.58
2019-05-16T17:09:29.149Z,100152.04
2019-05-16T17:11:57.104Z,100152.56
2019-05-16T17:14:26.354Z,100151.44
2019-05-16T17:16:53.798Z,100148.95
2019-05-16T17:19:21.541Z,100153.27
2019-05-16T17:22:01.786Z,100158.74
2019-05-16T17:24:18.214Z,100156.02
2019-05-16T17:26:47.740Z,100158.65
2019-05-16T17:29:17.122Z,100157.37
2019-05-16T17:31:53.989Z,100153.19
2019-05-16T17:34:16.338Z,100152.87
2019-05-16T17:36:43.789Z,100149.64
2019-05-16T17:39:11.557Z,100146.20
2019-05-16T17:41:39.051Z,100147.45
2019-05-16T17:44:06.918Z,100138.59
2019-05-16T17:46:38.224Z,100136.47
2019-05-16T17:49:03.791Z,100138.00
2019-05-16T17:51:31.243Z,100134.06
2019-05-16T17:53:58.381Z,100130.58
2019-05-16T17:56:26.439Z,100127.09
2019-05-16T17:58:54.021Z,100129.34
2019-05-16T18:01:21.419Z,100132.13
2019-05-16T18:03:48.686Z,100128.13
2019-05-16T18:06:17.122Z,100129.68
2019-05-16T18:08:46.642Z,100131.41
2019-05-16T18:11:13.914Z,100125.02
2019-05-16T18:13:41.539Z,100122.20
2019-05-16T18:16:08.917Z,100125.64
2019-05-16T18:18:37.462Z,100117.37
2019-05-16T18:21:06.940Z,100124.77
2019-05-16T18:23:36.802Z,100118.78
2019-05-16T18:26:04.398Z,100119.70
2019-05-16T18:28:31.677Z,100122.62
2019-05-16T18:30:58.813Z,100117.85
2019-05-16T18:33:27.635Z,100124.36
2019-05-16T18:35:55.103Z,100117.54
2019-05-16T18:38:22.631Z,100124.38
2019-05-16T18:40:49.929Z,100123.48
2019-05-16T18:43:17.803Z,100119.14
2019-05-16T18:45:47.200Z,100120.69
2019-05-16T18:48:14.892Z,100122.42
2019-05-16T18:50:42.272Z,100123.59
2019-05-16T18:53:09.817Z,100118.97
2019-05-16T18:55:37.355Z,100115.27
2019-05-16T18:58:08.345Z,100117.78
2019-05-16T19:00:34.346Z,100115.23
2019-05-16T19:03:01.649Z,100115.33
2019-05-16T19:05:29.126Z,100109.96
2019-05-16T19:07:56.445Z,100107.88
2019-05-16T19:10:23.712Z,100111.98
2019-05-16T19:12:50.896Z,100105.15
2019-05-16T19:15:18.348Z,100109.13
2019-05-16T19:17:45.839Z,100110.05
2019-05-16T19:20:17.212Z,100105.13
2019-05-16T19:22:44.788Z,100102.04
2019-05-16T19:25:12.896Z,100099.73
2019-05-16T19:27:40.397Z,100102.72
2019-05-16T19:30:10.578Z,100104.25
2019-05-16T19:32:39.610Z,100096.05
2019-05-16T19:35:07.269Z,100096.05
2019-05-16T19:37:37.994Z,100103.01
2019-05-16T19:40:09.879Z,100094.71
2019-05-16T19:42:39.794Z,100100.21
2019-05-16T19:45:08.072Z,100096.46
2019-05-16T19:47:40.845Z,100092.07
2019-05-16T19:50:08.006Z,100099.03
2019-05-16T19:52:36.680Z,100095.95
2019-05-16T19:55:06.987Z,100093.31
2019-05-16T19:57:34.089Z,100086.70
2019-05-16T20:00:01.790Z,100088.91
2019-05-16T20:02:29.318Z,100087.55
2019-05-16T20:04:56.725Z,100082.82
2019-05-16T20:07:26.256Z,100088.67
2019-05-16T20:09:53.851Z,100086.38
2019-05-16T20:12:21.756Z,100081.84
2019-05-16T20:14:49.033Z,100086.38
2019-05-16T20:17:19.263Z,100080.69
2019-05-16T20:19:47.084Z,100086.98
2019-05-16T20:22:16.564Z,100088.35
2019-05-16T20:24:43.832Z,100084.79
2019-05-16T20:27:10.991Z,100083.55
2019-05-16T20:29:38.722Z,100084.89
2019-05-16T20:32:07.840Z,100073.45
2019-05-16T20:34:37.135Z,100076.84
2019-05-16T20:37:06.130Z,100073.86
2019-05-16T20:39:37.161Z,100066.13
2019-05-16T20:42:04.528Z,100075.77
2019-05-16T20:44:31.697Z,100067.70
2019-05-16T20:46:59.046Z,100061.52
2019-05-16T20:49:27.131Z,100067.05
2019-05-16T20:51:57.610Z,100069.62
2019-05-16T20:54:23.995Z,100067.95
2019-05-16T20:56:51.462Z,100063.34
2019-05-16T20:59:18.848Z,100064.83
2019-05-16T21:01:46.471Z,100059.90
2019-05-16T21:04:17.229Z,100059.58
2019-05-16T21:06:57.497Z,100061.59
2019-05-16T21:09:13.779Z,100056.50
2019-05-16T21:11:41.768Z,100057.05
2019-05-16T21:14:09.284Z,100050.91
2019-05-16T21:16:37.988Z,100052.66
2019-05-16T21:19:06.973Z,100055.27
2019-05-16T21:21:36.643Z,100047.20
2019-05-16T21:24:03.662Z,100044.17
2019-05-16T21:26:30.916Z,100046.45
2019-05-16T21:28:58.170Z,100044.27
2019-05-16T21:31:27.490Z,100042.02
2019-05-16T21:33:56.479Z,100038.33
2019-05-16T21:36:27.425Z,100038.04
2019-05-16T21:38:54.714Z,100035.40
2019-05-16T21:41:22.227Z,100027.84
2019-05-16T21:44:01.963Z,100021.26
2019-05-16T21:46:29.681Z,100021.73
2019-05-16T21:48:57.112Z,100018.53
2019-05-16T21:51:26.797Z,100020.48
2019-05-16T21:53:56.251Z,100020.63
2019-05-16T21:56:26.596Z,100019.53
2019-05-16T21:58:54.072Z,100016.08
2019-05-16T22:01:22.522Z,100011.86
2019-05-16T22:03:50.689Z,100012.68
2019-05-16T22:06:18.382Z,100017.45
2019-05-16T22:08:46.773Z,100020.30
2019-05-16T22:11:14.548Z,100016.20
2019-05-16T22:13:46.355Z,100011.44
2019-05-16T22:16:13.451Z,100012.68
2019-05-16T22:18:41.040Z,100010.08
2019-05-16T22:21:08.393Z,100000.95
2019-05-16T22:23:37.377Z,100004.77
2019-05-16T22:26:07.665Z,99999.88
2019-05-16T22:28:34.612Z,99996.92
2019-05-16T22:31:02.672Z,99998.67
2019-05-16T22:33:29.928Z,99995.80
2019-05-16T22:35:57.750Z,99992.89
2019-05-16T22:38:26.251Z,100000.25
2019-05-16T22:40:53.739Z,99991.70
2019-05-16T22:43:20.907Z,99988.25
2019-05-16T22:45:48.064Z,99986.97
2019-05-16T22:48:17.264Z,99982.11
2019-05-16T22:50:44.928Z,99979.16
2019-05-16T22:53:12.265Z,99974.34
2019-05-16T22:55:39.624Z,99974.15
2019-05-16T22:58:07.643Z,99969.61
2019-05-16T23:00:37.995Z,99970.27
2019-05-16T23:03:06.821Z,99964.16
2019-05-16T23:05:36.657Z,99966.88
2019-05-16T23:08:07.267Z,99957.85
2019-05-16T23:10:33.119Z,99953.38
2019-05-16T23:13:00.366Z,99950.73
2019-05-16T23:15:28.083Z,99948.70
2019-05-16T23:17:57.361Z,99945.27
2019-05-16T23:20:24.899Z,99942.23
2019-05-16T23:22:56.277Z,99941.27
2019-05-16T23:25:23.576Z,99931.52
2019-05-16T23:27:50.923Z,99937.02
2019-05-16T23:30:18.798Z,99941.23
2019-05-16T23:32:47.132Z,99931.62
2019-05-16T23:35:15.210Z,99932.73
2019-05-16T23:37:42.799Z,99926.34
2019-05-16T23:40:10.366Z,99924.75
2019-05-16T23:42:37.513Z,99923.00
2019-05-16T23:45:08.651Z,99924.76
2019-05-16T23:47:36.612Z,99919.64
2019-05-16T23:50:04.423Z,99917.48
2019-05-16T23:52:31.606Z,99905.78
2019-05-16T23:54:58.941Z,99907.09
2019-05-16T23:57:26.709Z,99905.19
2019-05-16T23:59:56.620Z,99902.48
